Morelia / Mich., Mexico

3:06 AM CST on December 05, 2016 (GMT -0600)
Gen Francisco J Mujica International | | Change Station

Elev 6014 ft 19.85 °N, 101.03 °W | Updated 1 hour ago

Mostly Cloudy
Mostly Cloudy
57 °F
Feels Like 57 °F
N
8
Wind Variable Wind from South

Today
High -- | Low -- °F
--% Chance of Precip.
Yesterday
High -- | Low -- °F
Precip. -- in
Pressure 30.10 in
Visibility 6.0 miles
Clouds Scattered Clouds 8000 ft
Mostly Cloudy 23000 ft
Dew Point 52 °F
Humidity 82%
Rainfall 0.00 in
Snow Depth Not available.
7:05 AM 6:05 PM
Waxing Crescent, 30% visible
METAR MMMM 050750Z 18007KT 6SM SCT080 BKN230 14/11 A3010 RMK 8/038
Pressure 30.10 in
Visibility 6.0 miles
Clouds Scattered Clouds 8000 ft
Mostly Cloudy 23000 ft
Dew Point 52 °F
Humidity 82%
Rainfall 0.00 in
Snow Depth Not available.
7:05 AM 6:05 PM
Waxing Crescent, 30% visible
METAR MMMM 050750Z 18007KT 6SM SCT080 BKN230 14/11 A3010 RMK 8/038

10-Day Weather Forecast

No radar image for this location.
×

Almanac

Astronomy

Dec. 05, 2016 Rise Set
Actual Time
Civil Twilight
Nautical Twilight
Astronomical Twilight
Moon
Length of Visible Light
Length of Day
Tomorrow will be .
, % of the Moon is Illuminated

Today's Extremes

Country Highs Country Lows

Community

WunderPhotos

Upload Photos

1,955,771 photos uploaded!

WunderBlog® & News

Nearby

Air Quality

  Air Quality AQ Index Pollutant
Not available.

Snow Depth

Station Depth Elevation

Earthquake Activity

City Distance Mag. Time & Date
Minimum magnitude displayed is 2.5.

Coastal Water Temperatures

Place Temperature

Stations

Nearby Weather Stations

Station Location Temp. Windchill Dew Point Humidity Wind Precip. Elev Updated Type